Valle Toledo, Valles Caldera, New Mexico Weather observations

Data are for 10 minute period ending at time listed.
 Day   Time   Solar   Ave.   Ave.  Ave.  Vector  Max.   Baro.   Total    
  of    of     Rad.   Air    Rel.  Wind   Wind   Wind  Press.  Precip.   
Year   Day            Temp.  Hum.  Speed  Dir.   Gust                    
2014   (MST)  Kw/m2    F      %     mph   deg.    mph    mb.     in.     
-------------------------------------------------------------------------
 296    3:30   0.00   35.6    70    2.9    40     3.6   735.0    0.00 
 296    3:40   0.00   35.5    70    2.9    42     4.8   735.0    0.00 
 296    3:50   0.00   35.5    71    2.8    43     4.8   735.0    0.00 
 296    4:00   0.00   35.4    72    2.6    37     4.2   735.0    0.00 
 296    4:10   0.00   35.6    72    2.2    39     3.6   735.0    0.00 
 296    4:20   0.00   35.4    72    2.4   359     3.6   735.0    0.00 
 296    4:30   0.00   34.9    73    0.9    43     1.8   735.0    0.00 
 296    4:40   0.00   34.8    73    2.1    50     3.0   735.0    0.00 
 296    4:50   0.00   34.3    74    2.6    42     3.6   735.0    0.00 
 296    5:00   0.00   34.1    75    2.1    50     3.6   735.0    0.00 
 296    5:10   0.00   34.4    75    2.3    70     3.6   735.2    0.00 
 296    5:20   0.00   34.9    74    2.8    69     3.6   735.3    0.00 
 296    5:30   0.00   35.1    73    2.2    76     4.2   735.4    0.00 
 296    5:40   0.00   35.1    73    2.4    53     4.2   735.5    0.00 
 296    5:50   0.00   35.8    71    3.0    49     4.2   735.6    0.00 
 296    6:00   0.00   36.4    70    2.8    43     4.2   735.7    0.00 
 296    6:10   0.00   37.2    68    2.7    63     4.2   735.8    0.00 
 296    6:20   0.00   37.6    67    2.1    59     3.0   735.9    0.00 
 296    6:30   0.01   38.0    67    2.5    86     3.6   736.1    0.00 
 296    6:40   0.01   37.6    67    2.6    79     4.2   736.2    0.00 
 296    6:50   0.01   37.5    68    3.0    63     4.2   736.3    0.00 
 296    7:00   0.01   37.9    68    2.7    36     4.2   736.3    0.00 
 296    7:10   0.01   36.7    70    3.1    30     5.4   736.4    0.00 
 296    7:20   0.04   38.4    68    2.7    63     4.2   736.4    0.00 
 296    7:30   0.02   41.0    63    2.8    76     4.2   736.5    0.00 
 296    7:40   0.04   42.2    63    2.1    73     3.6   736.6    0.00 
 296    7:50   0.23   45.2    57    1.6    42     3.6   736.7    0.00 
 296    8:00   0.27   49.3    48    2.2   119     3.6   736.7    0.00 
 296    8:10   0.30   49.6    49    2.3   162     3.6   736.8    0.00 
 296    8:20   0.31   49.0    50    2.2   188     4.8   736.8    0.00 
 296    8:30   0.09   48.9    51    2.4   236     4.8   736.8    0.00 
 296    8:40   0.09   49.7    46    6.2   282    10.2   736.8    0.00 
 296    8:50   0.33   50.8    43    5.9   291    10.2   736.8    0.00 
 296    9:00   0.45   53.0    41    5.0   274     9.0   736.9    0.00 
 296    9:10   0.48   54.2    37    6.1   286    10.2   737.0    0.00 
 296    9:20   0.51   54.3    37    5.3   273     9.0   736.9    0.00 
 296    9:30   0.53   55.7    34    6.0   298    10.2   736.9    0.00 
 296    9:40   0.55   56.8    32    5.1   299     8.4   736.8    0.00 
 296    9:50   0.57   56.9    32    5.9   291     9.6   736.8    0.00 
 296   10:00   0.59   58.4    30    5.5   315     8.4   736.9    0.00 
 296   10:10   0.61   57.5    31    7.0   291    14.3   737.0    0.00 
 296   10:20   0.63   57.9    30    7.5   300    11.9   737.0    0.00 
 296   10:30   0.65   58.3    30    7.1   296    15.5   737.0    0.00 
 296   10:40   0.66   57.2    30    8.5   288    13.7   737.0    0.00 
 296   10:50   0.68   57.3    30    8.6   282    14.3   737.0    0.00 
 296   11:00   0.69   58.1    29    7.3   288    12.5   737.0    0.00 
 296   11:10   0.69   58.4    29    7.7   285    13.1   737.0    0.00 
 296   11:20   0.70   58.7    29    7.1   291    13.1   736.8    0.00 
 296   11:30   0.71   60.8    26    6.6   343    12.5   736.8    0.00 
 296   11:40   0.71   61.9    26    5.5   325    10.8   736.7    0.00 
 296   11:50   0.71   62.2    26    6.2   309    12.5   736.7    0.00 
 296   12:00   0.71   61.2    25    5.5   282    10.8   736.6    0.00 
 296   12:10   0.71   60.6    25    6.5   271    12.5   736.4    0.00 
 296   12:20   0.71   61.9    22    6.0   296    10.8   736.3    0.00 
 296   12:30   0.71   63.4    18    8.0   323    13.7   736.2    0.00 
 296   12:40   0.70   64.4    17    5.9   341    14.9   736.0    0.00 
 296   12:50   0.69   64.1    21    5.2   243    13.7   735.8    0.00 
 296   13:00   0.68   61.4    26    5.5   233    10.8   735.7    0.00 
 296   13:10   0.67   63.1    22    5.5   295    11.9   735.5    0.00 
 296   13:20   0.66   65.6    20    6.4   336    12.5   735.4    0.00 
 296   13:30   0.64   65.7    20    6.6   302    11.9   735.4    0.00 
 296   13:40   0.62   64.4    21    7.4   296    12.5   735.4    0.00 
 296   13:50   0.61   63.9    21    6.6   274    14.9   735.3    0.00 
 296   14:00   0.59   63.8    21    7.3   289    13.7   735.4    0.00 
 296   14:10   0.56   65.2    21    8.5   318    14.3   735.4    0.00 
 296   14:20   0.54   65.5    21    7.8   312    13.7   735.4    0.00 
 296   14:30   0.52   65.2    22    6.2   286    11.3   735.4    0.00 
 296   14:40   0.48   65.1    22    8.0   317    14.9   735.4    0.00 
 296   14:50   0.43   64.5    24    7.2   304    12.5   735.4    0.00 
 296   15:00   0.38   65.4    23    6.4   330    12.5   735.4    0.00 
 296   15:10   0.32   63.6    24    8.4   305    14.9   735.5    0.00 
 296   15:20   0.27   63.0    24    6.7   316    12.5   735.4    0.00 
 296   15:30   0.23   61.8    25    7.7   306    13.7   735.5    0.00 
 296   15:40   0.20   61.2    25    7.2   306    11.3   735.5    0.00 
 296   15:50   0.18   60.6    26    7.3   304    10.8   735.7    0.00 
 296   16:00   0.16   60.5    26    6.2   312    10.8   735.6    0.00 
 296   16:10   0.16   61.0    26    5.8   309    11.9   735.7    0.00 
 296   16:20   0.15   60.3    26    7.4   316    11.9   735.8    0.00 
 296   16:30   0.14   60.4    26    7.2   319    14.3   735.8    0.00 
 296   16:40   0.12   60.0    27    7.1   316    12.5   735.9    0.00 
 296   16:50   0.09   60.1    27    7.0   313    10.8   736.1    0.00 
 296   17:00   0.06   58.2    29    7.7   315    12.5   736.2    0.00 
 296   17:10   0.02   55.7    31    7.4   318    14.3   736.4    0.00 
 296   17:20   0.01   54.1    33    5.4   323     9.6   736.5    0.00 
 296   17:30   0.00   52.5    36    5.5   331     9.0   736.6    0.00 
 296   17:40   0.00   51.6    37    5.9   338    10.2   736.7    0.00 
 296   17:50   0.00   51.4    37    5.0   348     9.0   736.8    0.00 
 296   18:00   0.00   50.4    39    4.2   352     7.2   736.9    0.00 
 296   18:10   0.00   49.7    40    3.1   358     4.8   737.0    0.00 
 296   18:20   0.00   48.6    42    3.6    24     4.8   737.0    0.00 
 296   18:30   0.00   47.7    44    4.4    36     5.4   737.1    0.00 
 296   18:40   0.00   46.5    47    3.9    27     6.0   737.2    0.00 
 296   18:50   0.00   45.5    49    4.1    20     5.4   737.2    0.00 
 296   19:00   0.00   45.3    50    4.2    27     5.4   737.2    0.00 
 296   19:10   0.00   44.9    51    4.2    28     5.4   737.2    0.00 
 296   19:20   0.00   44.3    52    4.7    39     6.0   737.2    0.00 
 296   19:30   0.00   44.4    52    4.1    31     6.6   737.1    0.00 
 296   19:40   0.00   44.5    52    3.8     8     7.2   737.1    0.00 
 296   19:50   0.00   44.2    53    2.8    53     4.8   737.1    0.00 
 296   20:00   0.00   43.4    54    2.5    45     4.2   737.2    0.00 
 296   20:10   0.00   43.1    55    2.7    29     5.4   737.2    0.00 
 296   20:20   0.00   43.5    55    2.2    54     4.2   737.2    0.00 
 296   20:30   0.00   43.1    54    2.7    93     3.6   737.4    0.00 
 296   20:40   0.00   43.0    54    2.7    36     4.2   737.4    0.00 
 296   20:50   0.00   42.4    56    2.2    43     3.6   737.4    0.00 
 296   21:00   0.00   42.2    56    2.8    51     4.2   737.5    0.00 
 296   21:10   0.00   41.7    58    3.2    39     4.2   737.5    0.00 
 296   21:20   0.00   41.4    59    2.8    56     4.8   737.5    0.00 
 296   21:30   0.00   41.0    60    2.8    55     4.2   737.6    0.00 
 296   21:40   0.00   41.0    59    2.8    63     4.2   737.6    0.00 
 296   21:50   0.00   41.4    57    2.9    59     4.8   737.6    0.00 
 296   22:00   0.00   41.0    57    2.8    45     4.2   737.7    0.00 
 296   22:10   0.00   40.9    58    2.2    88     4.2   737.7    0.00 
 296   22:20   0.00   40.4    59    2.3   128     3.6   737.6    0.00 
 296   22:30   0.00   39.5    61    3.0    62     4.2   737.7    0.00 
 296   22:40   0.00   39.2    61    2.1    72     4.2   737.7    0.00 
 296   22:50   0.00   38.9    60    2.3    40     3.6   737.7    0.00 
 296   23:00   0.00   39.3    58    1.7   108     4.2   737.7    0.00 
 296   23:10   0.00   39.1    55    2.2   337     3.6   737.6    0.00 
 296   23:20   0.00   39.4    55    1.8   139     3.0   737.6    0.00 
 296   23:30   0.00   38.3    59    2.5   108     4.2   737.6    0.00 
 296   23:40   0.00   38.6    58    2.0   101     3.0   737.6    0.00 
 296   23:50   0.00   39.3    55    2.5    64     4.2   737.7    0.00 
 297    0:00   0.00   39.7    54    2.5    80     3.0   737.6    0.00 
 297    0:10   0.00   40.3    53    2.2    80     3.6   737.7    0.00 
 297    0:20   0.00   39.9    54    2.2    55     3.0   737.7    0.00 
 297    0:30   0.00   39.9    54    2.0    25     3.0   737.7    0.00 
 297    0:40   0.00   39.6    56    2.3    81     4.2   737.7    0.00 
 297    0:50   0.00   40.1    55    3.2    72     3.6   737.7    0.00 
 297    1:00   0.00   40.0    54    2.5    69     4.2   737.6    0.00 
 297    1:10   0.00   39.5    55    1.6    28     3.0   737.7    0.00 
 297    1:20   0.00   38.8    60    2.8    44     4.2   737.6    0.00 
 297    1:30   0.00   38.2    63    2.4    41     3.6   737.6    0.00 
 297    1:40   0.00   38.3    63    2.8    46     4.2   737.6    0.00 
 297    1:50   0.00   38.9    62    2.0    92     4.8   737.6    0.00 
 297    2:00   0.00   38.4    62    2.5    66     4.2   737.6    0.00 
 297    2:10   0.00   38.4    62    2.9    50     3.6   737.5    0.00 
 297    2:20   0.00   38.2    60    3.0    10     4.8   737.5    0.00 
 297    2:30   0.00   38.3    60    2.7    30     4.2   737.4    0.00 
 297    2:40   0.00   38.8    58    2.3    61     3.0   737.3    0.00 
 297    2:50   0.00   38.7    57    3.0    47     4.2   737.3    0.00 
 297    3:00   0.00   38.6    57    2.8    46     4.2   737.2    0.00 
 297    3:10   0.00   38.8    56    2.7   354     4.8   737.3    0.00 
 297    3:20   0.00   38.2    57    1.3    44     2.4   737.3    0.00 

Return to Valle Toledo, Valles Caldera graphs page.


Western Regional Climate Center,wrcc@dri.edu